Avalon, Pennsylvania
Current Conditions -  °F | °C
As of 12:51 AM on Sunday 26 Oct 2014 (Local Time) from KPIT Reporting Station
Clear Clear  
Wind Chill: 56°   Ceiling: Unl
Heat Index: 56°   Visibility: 10mi
Dew Point: 32°   Wind: 17mph
Humidity: 40%   Direction: 300°WNW
Pressure: 29.79"   Gusts: 26mph
Location:  40.5069°N, 80.0715°W
Report Text: KPIT 260451Z 30015G23KT 10SM CLR 13/00 A2979 RMK AO2 SLP092 T01330000 401890067
Loading
Personal Weather Stations






























Interactive Weather Map
Tropical Storm Tracking
New forecast layout! Learn more

10-Day Weather Forecast

Advertisements
Track Severe Weather on mobile